Time;durP1;ratioP1;P1;durP2;ratioP2;P2;SDS_P1;SDS_P2;PMS_P1;PMS_P2;Temp;Humidity;BMP_temperature;BMP_pressure;BME280_temperature;BME280_humidity;BME280_pressure;Samples;Min_cycle;Max_cycle;Signal;HPM_P1;HPM_P2
2022/04/08 00:00:17;;;;;;;9.70;9.30;;;;;;;10.25;66.23;91584.09;5009236;28;20207;-77
2022/04/08 00:02:43;;;;;;;9.67;9.27;;;;;;;10.28;67.07;91588.72;5024991;28;20246;-77
2022/04/08 00:05:10;;;;;;;9.73;9.33;;;;;;;9.91;68.09;91557.06;5009728;28;20214;-76
2022/04/08 00:07:36;;;;;;;10.57;9.97;;;;;;;9.92;69.34;91588.03;5008489;28;20199;-76
2022/04/08 00:10:02;;;;;;;9.17;8.80;;;;;;;9.67;70.42;91562.59;5008957;28;20207;-76
2022/04/08 00:12:28;;;;;;;9.43;8.87;;;;;;;9.92;69.19;91595.09;5009224;28;20294;-76
2022/04/08 00:14:53;;;;;;;9.00;8.70;;;;;;;10.02;69.64;91603.44;5008789;28;20228;-76
2022/04/08 00:17:19;;;;;;;9.43;9.03;;;;;;;9.74;71.26;91589.78;5009462;28;20746;-77
2022/04/08 00:19:44;;;;;;;9.27;8.87;;;;;;;9.79;69.96;91607.91;5008343;28;20234;-77
2022/04/08 00:22:10;;;;;;;9.43;9.07;;;;;;;9.77;70.62;91606.66;5009309;28;20282;-76
2022/04/08 00:24:35;;;;;;;8.50;8.20;;;;;;;9.74;69.55;91596.84;5007917;28;20223;-76
2022/04/08 00:27:01;;;;;;;8.40;8.10;;;;;;;10.00;67.79;91608.19;5009613;28;20266;-76
2022/04/08 00:29:26;;;;;;;9.37;8.87;;;;;;;10.04;67.65;91608.34;5007402;28;20303;-77
2022/04/08 00:31:57;;;;;;;9.43;8.93;;;;;;;10.01;67.02;91609.72;5010102;28;20265;-77
2022/04/08 00:34:24;;;;;;;10.17;9.77;;;;;;;10.25;65.61;91614.63;5008488;28;20239;-77
2022/04/08 00:36:50;;;;;;;9.10;8.57;;;;;;;10.20;66.74;91607.69;5008919;28;20204;-77
2022/04/08 00:39:15;;;;;;;9.77;9.37;;;;;;;10.19;66.58;91616.59;5008484;28;20243;-76
2022/04/08 00:41:41;;;;;;;9.47;9.07;;;;;;;10.03;67.14;91625.84;5008984;28;20269;-78
2022/04/08 00:44:07;;;;;;;9.47;9.07;;;;;;;10.01;67.14;91617.53;5008311;28;20239;-78
2022/04/08 00:46:33;;;;;;;9.27;8.97;;;;;;;9.97;68.08;91619.22;5009246;28;20206;-78
2022/04/08 00:48:58;;;;;;;9.30;8.87;;;;;;;9.95;66.70;91610.13;5008541;28;20299;-76
2022/04/08 00:51:25;;;;;;;9.17;8.87;;;;;;;10.19;65.83;91621.81;5012553;28;20187;-76
2022/04/08 00:53:51;;;;;;;10.13;9.67;;;;;;;10.06;66.64;91627.84;5011684;28;20265;-77
2022/04/08 00:56:19;;;;;;;9.67;9.10;;;;;;;9.98;66.03;91617.38;5012736;28;20184;-77
2022/04/08 00:58:44;;;;;;;8.77;8.47;;;;;;;9.87;67.24;91603.81;5011606;28;20254;-76
2022/04/08 01:01:10;;;;;;;9.73;9.33;;;;;;;9.69;68.45;91607.38;5012176;28;20234;-76
2022/04/08 01:03:35;;;;;;;10.57;10.07;;;;;;;9.95;66.28;91610.13;5011706;28;20227;-76
2022/04/08 01:06:01;;;;;;;10.07;9.27;;;;;;;9.99;65.85;91624.91;5012702;28;20214;-77
2022/04/08 01:08:27;;;;;;;9.13;8.73;;;;;;;10.01;65.73;91608.97;5011937;28;20230;-76
2022/04/08 01:10:54;;;;;;;9.70;9.30;;;;;;;9.96;66.65;91611.69;5012105;28;20243;-76
2022/04/08 01:13:20;;;;;;;9.93;9.47;;;;;;;9.97;66.84;91619.22;5009619;28;20214;-77
2022/04/08 01:15:45;;;;;;;9.37;9.07;;;;;;;9.92;65.39;91592.47;5012366;28;20738;-76
2022/04/08 01:18:11;;;;;;;9.20;8.90;;;;;;;9.84;66.50;91607.00;5012112;28;20231;-76
2022/04/08 01:20:36;;;;;;;8.93;8.63;;;;;;;9.83;67.28;91605.47;5011761;28;20215;-77
2022/04/08 01:23:02;;;;;;;9.27;8.87;;;;;;;9.93;65.44;91607.81;5010880;28;20219;-76
2022/04/08 01:25:28;;;;;;;9.90;9.20;;;;;;;10.05;64.43;91607.28;5011622;28;20210;-76
2022/04/08 01:27:53;;;;;;;10.00;9.60;;;;;;;10.07;64.69;91612.97;5009666;28;20206;-78
2022/04/08 01:30:19;;;;;;;9.67;9.27;;;;;;;10.03;63.65;91607.56;5010893;28;20247;-77
2022/04/08 01:32:44;;;;;;;10.00;9.57;;;;;;;10.04;63.41;91618.78;5010210;28;20183;-76
2022/04/08 01:35:10;;;;;;;10.83;10.23;;;;;;;10.07;64.12;91634.63;5009953;28;20224;-76
2022/04/08 01:37:35;;;;;;;9.33;8.93;;;;;;;9.95;64.69;91636.97;5011004;28;20197;-77
2022/04/08 01:40:01;;;;;;;9.53;9.10;;;;;;;9.84;65.57;91617.44;5010774;28;20473;-76
2022/04/08 01:42:26;;;;;;;9.63;9.23;;;;;;;9.73;66.26;91626.56;5010889;28;20305;-75
2022/04/08 01:44:53;;;;;;;9.47;8.97;;;;;;;9.62;66.85;91633.84;5010199;28;20235;-76
2022/04/08 01:47:19;;;;;;;9.77;9.30;;;;;;;9.66;66.75;91623.59;5011636;28;20195;-76
2022/04/08 01:49:45;;;;;;;9.13;8.73;;;;;;;9.62;66.10;91620.03;5011383;28;20235;-76
2022/04/08 01:52:10;;;;;;;8.90;8.60;;;;;;;9.73;65.66;91629.16;5011104;28;20223;-76
2022/04/08 01:54:36;;;;;;;9.43;9.13;;;;;;;9.66;64.86;91608.72;5010821;28;20258;-77
2022/04/08 01:57:02;;;;;;;11.20;10.70;;;;;;;9.86;63.81;91622.34;5011319;28;20180;-76
2022/04/08 01:59:27;;;;;;;9.43;8.83;;;;;;;9.74;65.13;91638.53;5010485;28;20234;-77
2022/04/08 02:01:53;;;;;;;9.53;9.13;;;;;;;9.63;63.45;91619.00;5010900;28;20275;-77
2022/04/08 02:04:18;;;;;;;9.57;9.17;;;;;;;9.68;64.27;91642.34;5010729;28;20220;-77
2022/04/08 02:06:44;;;;;;;9.50;9.10;;;;;;;9.72;63.44;91648.47;5011034;28;20218;-77
2022/04/08 02:09:11;;;;;;;9.17;8.77;;;;;;;9.82;62.41;91650.88;5010753;28;20243;-77
2022/04/08 02:11:38;;;;;;;9.03;8.70;;;;;;;9.92;62.05;91653.22;5011034;28;20207;-77
2022/04/08 02:14:03;;;;;;;9.47;8.90;;;;;;;10.05;61.24;91644.56;5010303;28;20258;-77
2022/04/08 02:16:29;;;;;;;9.13;8.73;;;;;;;10.07;61.02;91629.41;5010815;28;21382;-77
2022/04/08 02:18:55;;;;;;;8.73;8.33;;;;;;;10.27;59.08;91649.00;5010995;28;20291;-77
2022/04/08 02:21:20;;;;;;;8.50;8.20;;;;;;;10.18;59.32;91629.94;5010663;28;20287;-76
2022/04/08 02:23:46;;;;;;;8.20;7.90;;;;;;;10.21;59.79;91655.41;5009930;28;20238;-76
2022/04/08 02:26:13;;;;;;;8.53;8.20;;;;;;;10.12;59.53;91644.94;5010454;28;20190;-77
2022/04/08 02:28:39;;;;;;;10.10;9.67;;;;;;;9.95;60.79;91636.97;5009927;28;20243;-77
2022/04/08 02:31:05;;;;;;;9.30;8.90;;;;;;;10.20;58.79;91643.44;5010024;28;20287;-77
2022/04/08 02:33:31;;;;;;;8.77;8.37;;;;;;;10.18;59.87;91667.19;5010163;28;20235;-77
2022/04/08 02:35:57;;;;;;;9.53;9.03;;;;;;;10.10;59.41;91675.75;5010507;28;20211;-77
2022/04/08 02:38:22;;;;;;;8.53;8.23;;;;;;;10.09;60.11;91674.22;5009965;28;20247;-76
2022/04/08 02:40:48;;;;;;;9.27;8.87;;;;;;;10.25;59.19;91667.56;5010250;28;20205;-76
2022/04/08 02:43:13;;;;;;;9.47;9.07;;;;;;;10.26;58.73;91676.91;5010001;28;20223;-76
2022/04/08 02:45:38;;;;;;;8.83;8.43;;;;;;;10.12;59.14;91678.81;5011317;28;20199;-77
2022/04/08 02:48:04;;;;;;;7.97;7.67;;;;;;;10.11;59.49;91692.94;5009890;28;20235;-77
2022/04/08 02:50:30;;;;;;;9.07;8.57;;;;;;;10.39;58.55;91676.06;5010973;28;20287;-78
2022/04/08 02:52:55;;;;;;;8.73;8.43;;;;;;;10.30;59.05;91682.31;5009694;28;20207;-77
2022/04/08 02:55:21;;;;;;;8.10;7.80;;;;;;;10.21;59.50;91682.25;5010591;28;20195;-76
2022/04/08 02:57:47;;;;;;;8.83;8.47;;;;;;;10.19;57.98;91688.84;5009951;28;20188;-77
2022/04/08 03:00:18;;;;;;;9.47;8.87;;;;;;;10.10;58.44;91675.75;5009670;28;20219;-76
2022/04/08 03:02:44;;;;;;;8.93;8.53;;;;;;;10.29;56.84;91705.00;5010048;28;20217;-77
2022/04/08 03:05:11;;;;;;;8.77;8.37;;;;;;;10.16;58.92;91715.53;5009847;28;20226;-77
2022/04/08 03:07:36;;;;;;;8.77;8.47;;;;;;;10.23;57.90;91715.84;5009450;28;20188;-77
2022/04/08 03:10:07;;;;;;;8.80;8.50;;;;;;;10.25;58.03;91730.16;5009499;28;20242;-77
2022/04/08 03:12:33;;;;;;;8.50;8.20;;;;;;;10.23;58.01;91721.06;5009190;28;20250;-77
2022/04/08 03:14:59;;;;;;;9.17;8.67;;;;;;;10.22;57.33;91714.31;5009277;28;20232;-77
2022/04/08 03:17:25;;;;;;;9.90;9.40;;;;;;;10.23;57.61;91737.50;5008888;28;20179;-76
2022/04/08 03:19:51;;;;;;;7.57;7.27;;;;;;;10.20;57.59;91717.22;5009086;28;20239;-76
2022/04/08 03:22:20;;;;;;;9.53;9.13;;;;;;;10.64;53.96;91708.56;5008900;28;20230;-77
2022/04/08 03:24:51;;;;;;;9.40;9.00;;;;;;;10.90;53.03;91728.50;5008235;28;20228;-77
2022/04/08 03:27:17;;;;;;;8.53;8.23;;;;;;;10.57;55.66;91732.50;5008837;28;20183;-77
2022/04/08 03:29:43;;;;;;;8.57;8.27;;;;;;;10.38;56.51;91747.56;5009132;28;20238;-77
2022/04/08 03:32:09;;;;;;;8.83;8.30;;;;;;;10.23;58.10;91747.94;5009063;28;20255;-77
2022/04/08 03:34:34;;;;;;;9.23;8.83;;;;;;;10.03;58.29;91737.16;5008536;28;20234;-77
2022/04/08 03:37:00;;;;;;;8.93;8.53;;;;;;;9.84;59.35;91739.94;5008213;28;20247;-77
2022/04/08 03:39:25;;;;;;;9.57;9.03;;;;;;;9.95;58.33;91756.91;5008551;28;20342;-77
2022/04/08 03:41:51;;;;;;;9.03;8.73;;;;;;;10.13;57.81;91776.09;5009393;28;20187;-76
2022/04/08 03:44:16;;;;;;;8.10;7.80;;;;;;;9.91;58.61;91766.38;5008262;28;20227;-76
2022/04/08 03:46:43;;;;;;;8.53;8.23;;;;;;;10.00;58.54;91754.19;5009921;28;20275;-76
2022/04/08 03:49:14;;;;;;;8.23;7.93;;;;;;;9.92;59.08;91773.13;5009082;28;20906;-77
2022/04/08 03:51:41;;;;;;;9.87;9.47;;;;;;;10.16;57.07;91775.50;5009833;28;20205;-77
2022/04/08 03:54:07;;;;;;;8.87;8.57;;;;;;;10.13;57.11;91769.06;5008982;28;20234;-79
2022/04/08 03:56:33;;;;;;;10.50;9.90;;;;;;;10.01;57.62;91768.00;5009474;28;20198;-77
2022/04/08 03:58:59;;;;;;;9.30;8.93;;;;;;;10.35;55.69;91779.47;5008859;28;20235;-78
2022/04/08 04:01:24;;;;;;;8.43;8.13;;;;;;;10.48;55.35;91786.47;5007684;28;20230;-78
2022/04/08 04:03:49;;;;;;;9.67;9.27;;;;;;;10.64;54.95;91798.09;5007348;28;20259;-77
2022/04/08 04:06:15;;;;;;;10.20;9.70;;;;;;;10.48;56.40;91796.13;5008205;28;20183;-76
2022/04/08 04:08:40;;;;;;;9.70;9.30;;;;;;;10.49;55.24;91787.25;5006831;28;20230;-78
2022/04/08 04:11:06;;;;;;;9.07;8.67;;;;;;;10.51;55.36;91801.53;5007806;28;20210;-77
2022/04/08 04:13:31;;;;;;;8.90;8.60;;;;;;;10.38;55.68;91784.09;5006200;28;20286;-77
2022/04/08 04:15:57;;;;;;;9.97;9.57;;;;;;;10.38;57.12;91812.03;5008031;28;20199;-75
2022/04/08 04:18:22;;;;;;;8.97;8.47;;;;;;;10.32;57.74;91808.00;5005929;28;20290;-75
2022/04/08 04:20:48;;;;;;;8.53;8.20;;;;;;;10.37;57.82;91806.03;5006800;28;20215;-75
2022/04/08 04:23:13;;;;;;;9.70;9.33;;;;;;;10.32;57.61;91813.97;5002478;28;20237;-77
2022/04/08 04:25:39;;;;;;;9.93;9.53;;;;;;;10.10;59.00;91800.91;4989390;28;20199;-75
2022/04/08 04:28:04;;;;;;;9.20;8.80;;;;;;;10.27;58.74;91819.31;4992579;28;20238;-75
2022/04/08 04:30:30;;;;;;;8.40;8.10;;;;;;;10.27;57.35;91836.81;5011386;28;20280;-75
2022/04/08 04:32:56;;;;;;;9.00;8.33;;;;;;;10.48;57.63;91849.09;5008649;28;20191;-77
2022/04/08 04:35:22;;;;;;;8.67;8.37;;;;;;;10.54;57.54;91827.03;4991224;28;20180;-77
2022/04/08 04:37:48;;;;;;;9.00;8.60;;;;;;;10.54;57.71;91841.91;4990131;28;20200;-76
2022/04/08 04:40:13;;;;;;;9.37;8.77;;;;;;;10.57;56.41;91831.66;4992432;28;20216;-75
2022/04/08 04:42:39;;;;;;;8.03;7.73;;;;;;;10.56;57.16;91830.13;4991329;28;20192;-76
2022/04/08 04:45:05;;;;;;;10.20;9.70;;;;;;;10.92;52.78;91828.22;5009929;28;20227;-76
2022/04/08 04:47:31;;;;;;;10.20;9.80;;;;;;;10.94;55.55;91833.88;5011253;28;20214;-78
2022/04/08 04:49:56;;;;;;;10.83;10.30;;;;;;;11.08;52.91;91831.22;5010595;28;20227;-77
2022/04/08 04:52:22;;;;;;;9.93;9.37;;;;;;;11.23;51.94;91855.09;5009834;28;20203;-79
2022/04/08 04:54:47;;;;;;;9.67;9.20;;;;;;;11.17;52.80;91845.81;5010729;28;20220;-78
2022/04/08 04:57:13;;;;;;;10.23;9.73;;;;;;;11.35;52.41;91851.91;5007443;28;20506;-78
2022/04/08 04:59:38;;;;;;;10.33;9.80;;;;;;;11.52;53.71;91872.16;4992821;28;20294;-80
2022/04/08 05:02:04;;;;;;;9.10;8.70;;;;;;;11.65;51.90;91876.50;4988919;28;20196;-77
2022/04/08 05:04:30;;;;;;;9.43;8.63;;;;;;;11.91;51.44;91880.75;5002875;28;20238;-76
2022/04/08 05:06:55;;;;;;;10.87;10.27;;;;;;;11.89;50.37;91893.34;5008250;28;20188;-77
2022/04/08 05:09:21;;;;;;;9.80;9.30;;;;;;;11.85;54.08;91899.50;5009019;28;20227;-77
2022/04/08 05:11:48;;;;;;;10.63;10.13;;;;;;;12.62;50.99;91916.91;5010982;28;20275;-76
2022/04/08 05:14:14;;;;;;;9.63;9.13;;;;;;;12.50;51.57;91924.59;4994819;28;20228;-75
2022/04/08 05:16:39;;;;;;;9.13;8.63;;;;;;;11.94;57.42;91913.41;4990958;28;20200;-74
2022/04/08 05:19:04;;;;;;;9.90;9.20;;;;;;;11.32;61.14;91902.94;5002167;28;20223;-77
2022/04/08 05:21:30;;;;;;;10.43;9.83;;;;;;;10.65;64.70;91911.09;5003729;28;20283;-77
2022/04/08 05:23:56;;;;;;;10.67;9.90;;;;;;;10.41;65.71;91918.41;5009388;28;20261;-77
2022/04/08 05:26:22;;;;;;;9.47;8.87;;;;;;;10.79;59.20;91938.69;5010741;28;20183;-77
2022/04/08 05:28:48;;;;;;;10.30;9.83;;;;;;;11.04;59.20;91935.50;5008803;28;20704;-77
2022/04/08 05:31:13;;;;;;;10.03;9.40;;;;;;;11.35;55.12;91941.53;5008149;28;20184;-77
2022/04/08 05:33:39;;;;;;;10.10;9.60;;;;;;;11.58;55.38;91920.59;5007049;28;20331;-77
2022/04/08 05:36:05;;;;;;;9.93;9.43;;;;;;;11.80;49.98;91929.16;5005875;28;20197;-77
2022/04/08 05:38:31;;;;;;;9.13;8.73;;;;;;;12.06;49.63;91931.88;5010726;28;21604;-77
2022/04/08 05:40:56;;;;;;;8.80;8.43;;;;;;;12.30;49.25;91935.66;5010725;28;20210;-79
2022/04/08 05:43:21;;;;;;;10.17;9.77;;;;;;;12.42;47.10;91938.44;5009787;28;20239;-81
2022/04/08 05:45:47;;;;;;;9.17;8.70;;;;;;;12.57;47.99;91939.84;5010263;28;20815;-80
2022/04/08 05:48:12;;;;;;;9.53;8.93;;;;;;;12.83;46.17;91956.34;5005627;28;20311;-79
2022/04/08 05:50:38;;;;;;;9.90;9.33;;;;;;;12.87;47.81;91950.19;4989741;28;20564;-77
2022/04/08 05:53:03;;;;;;;9.47;8.60;;;;;;;12.75;49.68;91946.63;4994744;28;21232;-82
2022/04/08 05:55:29;;;;;;;9.27;8.87;;;;;;;14.57;45.40;91963.25;5008486;28;20278;-78
2022/04/08 05:57:56;;;;;;;8.30;7.90;;;;;;;15.95;40.38;91957.31;5010945;28;20192;-78
2022/04/08 06:00:23;;;;;;;8.27;7.87;;;;;;;14.89;42.61;91937.06;5010593;28;20222;-78
2022/04/08 06:02:49;;;;;;;8.93;8.60;;;;;;;13.98;45.81;91944.00;5010243;28;20175;-78
2022/04/08 06:05:18;;;;;;;9.40;8.77;;;;;;;13.71;47.53;91939.19;5011221;28;20209;-78
2022/04/08 06:07:52;;;;;;;9.60;9.20;;;;;;;13.09;47.16;91957.16;5010811;28;20207;-76
2022/04/08 06:10:18;;;;;;;9.80;9.40;;;;;;;13.28;52.24;91962.84;5009704;28;20286;-79
2022/04/08 06:13:03;;;;;;;10.17;9.57;;;;;;;12.45;59.52;91971.09;5008663;28;20604;-77
2022/04/08 06:15:29;;;;;;;10.70;10.00;;;;;;;11.82;62.03;91960.25;5008535;28;20192;-81
2022/04/08 06:17:55;;;;;;;10.37;9.77;;;;;;;11.77;64.17;91973.44;5009498;28;20218;-78
2022/04/08 06:20:22;;;;;;;12.17;11.07;;;;;;;11.50;66.98;91963.16;5008905;28;20203;-78
2022/04/08 06:22:48;;;;;;;10.40;9.80;;;;;;;11.71;65.24;91959.75;5009965;28;20218;-78
2022/04/08 06:25:20;;;;;;;8.90;8.47;;;;;;;11.73;65.69;91962.06;5010811;28;20192;-77
2022/04/08 06:27:58;;;;;;;11.20;10.17;;;;;;;11.79;65.43;91966.09;5009612;28;20189;-77
2022/04/08 06:30:24;;;;;;;10.57;9.87;;;;;;;11.56;66.30;91920.13;5010123;28;20821;-78
2022/04/08 06:32:49;;;;;;;9.40;8.90;;;;;;;11.97;62.98;91973.69;5011287;28;20192;-78
2022/04/08 06:35:15;;;;;;;10.23;9.17;;;;;;;11.93;64.21;91969.38;5010435;28;20202;-78
2022/04/08 06:37:40;;;;;;;9.17;8.57;;;;;;;12.16;62.97;91949.91;5009734;28;20212;-78
2022/04/08 06:40:08;;;;;;;9.53;8.87;;;;;;;12.34;62.96;91967.22;5010801;28;20230;-78
2022/04/08 06:42:36;;;;;;;9.70;9.20;;;;;;;12.07;64.90;91962.19;5009072;28;20203;-78
2022/04/08 06:45:03;;;;;;;9.03;8.43;;;;;;;12.06;65.23;91971.13;5010004;28;20257;-79
2022/04/08 06:47:28;;;;;;;10.57;9.73;;;;;;;12.22;64.56;91980.09;5009670;28;20192;-78
2022/04/08 06:49:54;;;;;;;10.13;9.23;;;;;;;12.21;65.47;91989.03;5009906;28;20217;-78
2022/04/08 06:52:20;;;;;;;9.80;9.00;;;;;;;12.33;65.42;91991.84;5009587;28;20212;-78
2022/04/08 06:54:45;;;;;;;10.97;9.80;;;;;;;12.63;60.83;91993.63;5010662;28;20234;-78
2022/04/08 06:57:11;;;;;;;9.07;8.60;;;;;;;12.46;62.55;92002.22;5009542;28;20218;-78
2022/04/08 06:59:36;;;;;;;9.67;9.07;;;;;;;12.59;63.05;92008.41;5010359;28;20266;-77
2022/04/08 07:02:03;;;;;;;9.67;9.17;;;;;;;12.68;58.12;91993.47;5009892;28;20217;-77
2022/04/08 07:04:28;;;;;;;8.70;8.20;;;;;;;12.62;60.41;91998.06;5009940;28;20251;-77
2022/04/08 07:06:54;;;;;;;9.13;8.63;;;;;;;12.80;60.53;92002.28;5009157;28;20196;-78
2022/04/08 07:09:20;;;;;;;9.13;8.57;;;;;;;12.88;62.35;92000.75;5009424;28;20223;-78
2022/04/08 07:11:48;;;;;;;10.20;9.47;;;;;;;13.19;61.07;92000.63;5010016;28;20190;-78
2022/04/08 07:14:14;;;;;;;8.70;8.33;;;;;;;13.15;60.90;92018.84;5009627;28;20227;-78
2022/04/08 07:16:41;;;;;;;9.40;8.90;;;;;;;13.14;62.16;91985.84;5010700;28;20249;-78
2022/04/08 07:19:07;;;;;;;9.70;9.10;;;;;;;13.21;61.41;92020.22;5008888;28;20282;-78
2022/04/08 07:21:32;;;;;;;10.87;9.87;;;;;;;13.16;62.22;92035.31;5009153;28;20231;-78
2022/04/08 07:23:58;;;;;;;9.50;9.07;;;;;;;13.17;60.93;92023.78;5009294;28;20303;-78
2022/04/08 07:26:23;;;;;;;9.27;8.67;;;;;;;13.21;62.12;92022.84;5010409;28;20184;-78
2022/04/08 07:28:49;;;;;;;9.17;8.73;;;;;;;13.46;62.00;92029.94;5008068;28;20235;-78
2022/04/08 07:31:14;;;;;;;9.63;8.93;;;;;;;13.68;58.17;92036.88;5010131;28;20259;-78
2022/04/08 07:33:40;;;;;;;9.20;8.70;;;;;;;13.77;58.04;92017.41;5009222;28;20291;-78
2022/04/08 07:36:05;;;;;;;8.83;8.33;;;;;;;13.99;55.98;92025.06;5010682;28;20179;-77
2022/04/08 07:38:31;;;;;;;9.07;8.43;;;;;;;14.06;54.40;92027.19;5010161;28;20238;-78
2022/04/08 07:40:59;;;;;;;9.90;9.30;;;;;;;14.11;53.33;92030.44;5009893;28;20207;-78
2022/04/08 07:43:25;;;;;;;8.87;8.47;;;;;;;14.26;54.13;92029.94;5012520;28;20268;-78
2022/04/08 07:45:51;;;;;;;10.43;9.70;;;;;;;14.60;52.41;92030.91;5009655;28;20186;-77
2022/04/08 07:48:17;;;;;;;8.93;8.33;;;;;;;14.76;46.74;92024.00;5008765;28;20223;-77
2022/04/08 07:50:42;;;;;;;9.13;8.73;;;;;;;14.61;45.78;92024.56;5009906;28;20242;-78
2022/04/08 07:53:08;;;;;;;9.60;9.20;;;;;;;14.52;41.26;92030.63;5008757;28;20250;-79
2022/04/08 07:55:34;;;;;;;8.27;7.97;;;;;;;14.75;38.52;92025.09;5011533;28;20198;-77
2022/04/08 07:57:59;;;;;;;8.10;7.80;;;;;;;15.10;37.74;92042.19;5009634;28;20191;-79
2022/04/08 08:00:27;;;;;;;9.10;8.70;;;;;;;15.30;38.79;92044.09;5012668;28;20300;-78
2022/04/08 08:02:52;;;;;;;8.57;8.17;;;;;;;15.32;37.65;92041.91;5013395;28;20191;-78
2022/04/08 08:05:22;;;;;;;8.30;8.00;;;;;;;15.34;38.45;92052.88;5013729;28;20252;-77
2022/04/08 08:07:50;;;;;;;8.47;8.00;;;;;;;15.34;35.50;92045.00;5012469;28;20203;-81
2022/04/08 08:10:21;;;;;;;8.60;8.20;;;;;;;15.43;38.13;92053.59;5009419;28;20199;-79
2022/04/08 08:12:46;;;;;;;7.80;7.50;;;;;;;15.58;38.36;92045.16;5013477;28;20251;-79
2022/04/08 08:15:13;;;;;;;8.93;8.60;;;;;;;15.54;37.52;92045.03;5011779;28;20202;-78
2022/04/08 08:17:39;;;;;;;8.83;8.43;;;;;;;15.62;38.21;92036.28;5012924;28;20200;-76
2022/04/08 08:20:08;;;;;;;8.53;8.00;;;;;;;15.50;37.48;92036.22;5013039;28;20267;-77
2022/04/08 08:22:35;;;;;;;8.57;8.27;;;;;;;15.55;37.73;92051.03;5014862;28;20291;-79
2022/04/08 08:25:01;;;;;;;8.40;8.10;;;;;;;15.66;39.20;92055.59;5012370;28;20251;-77
2022/04/08 08:27:26;;;;;;;7.33;7.13;;;;;;;15.92;37.58;92058.75;5013100;28;20188;-77
2022/04/08 08:29:52;;;;;;;8.23;7.93;;;;;;;15.98;37.45;92067.25;5011476;28;20246;-77
2022/04/08 08:32:17;;;;;;;6.87;6.67;;;;;;;16.10;37.68;92067.28;5013053;28;20192;-77
2022/04/08 08:34:43;;;;;;;7.87;7.57;;;;;;;15.99;36.15;92072.19;5011823;28;20229;-78
2022/04/08 08:37:08;;;;;;;7.47;7.17;;;;;;;15.93;36.64;92057.69;5013004;28;20192;-78
2022/04/08 08:39:34;;;;;;;8.03;7.63;;;;;;;16.05;39.14;92072.75;5012307;28;20223;-77
2022/04/08 08:41:59;;;;;;;9.93;9.50;;;;;;;15.90;40.45;92058.34;5012595;28;20226;-77
2022/04/08 08:44:25;;;;;;;8.20;7.90;;;;;;;16.10;37.46;92062.00;5010740;28;20227;-77
2022/04/08 08:46:52;;;;;;;8.10;7.80;;;;;;;15.99;37.42;92081.94;5012877;28;20218;-78
2022/04/08 08:49:25;;;;;;;8.60;8.20;;;;;;;15.99;38.46;92055.63;5012340;28;20247;-78
2022/04/08 08:51:58;;;;;;;8.43;8.13;;;;;;;15.84;38.75;92072.03;5010102;28;20235;-76
2022/04/08 08:54:23;;;;;;;8.47;8.07;;;;;;;15.66;37.40;92065.34;5009568;28;20223;-78
2022/04/08 08:56:49;;;;;;;8.33;7.93;;;;;;;16.23;37.93;92082.03;5011064;28;20198;-76
2022/04/08 08:59:15;;;;;;;8.90;8.50;;;;;;;16.18;38.17;92084.09;5010803;28;20855;-76
2022/04/08 09:01:40;;;;;;;9.03;8.43;;;;;;;16.15;38.31;92096.06;5011523;28;20195;-76
2022/04/08 09:04:06;;;;;;;8.37;8.07;;;;;;;16.04;37.58;92079.13;5009535;28;20227;-77
2022/04/08 09:06:41;;;;;;;9.30;8.63;;;;;;;16.35;38.60;92079.44;5010499;28;20193;-76
2022/04/08 09:09:07;;;;;;;8.90;8.30;;;;;;;16.38;36.52;92086.66;5010069;28;20285;-76
2022/04/08 09:11:32;;;;;;;8.17;7.77;;;;;;;16.27;35.80;92080.28;5010667;28;20208;-77
2022/04/08 09:14:04;;;;;;;9.20;8.43;;;;;;;16.19;36.64;92080.38;5010530;28;20309;-76
2022/04/08 09:16:35;;;;;;;7.97;7.57;;;;;;;16.37;37.32;92092.28;5011038;28;20197;-75
2022/04/08 09:19:12;;;;;;;7.50;7.20;;;;;;;16.28;35.71;92058.09;5010610;28;20227;-76
2022/04/08 09:21:37;;;;;;;8.80;8.40;;;;;;;16.45;39.62;92084.28;5010507;28;20219;-77
2022/04/08 09:24:06;;;;;;;8.83;8.43;;;;;;;16.51;36.07;92084.88;5010063;28;20246;-75
2022/04/08 09:26:36;;;;;;;8.37;7.97;;;;;;;16.33;36.95;92063.16;5010775;28;20195;-76
2022/04/08 09:29:02;;;;;;;8.50;8.20;;;;;;;16.43;38.46;92083.84;5009533;28;20224;-76
2022/04/08 09:31:28;;;;;;;9.10;8.60;;;;;;;16.55;38.65;92091.78;5010878;28;20191;-76
2022/04/08 09:33:53;;;;;;;7.73;7.43;;;;;;;16.51;38.05;92087.50;5010687;28;20239;-75
2022/04/08 09:36:35;;;;;;;8.67;8.27;;;;;;;16.67;38.94;92080.50;5009759;28;20186;-76
2022/04/08 09:39:06;;;;;;;8.53;8.23;;;;;;;16.80;35.18;92096.00;5009562;28;20233;-77
2022/04/08 09:41:40;;;;;;;8.97;8.57;;;;;;;16.51;37.37;92072.47;5009967;28;20206;-76
2022/04/08 09:44:07;;;;;;;8.53;8.13;;;;;;;16.60;36.22;92091.59;5010062;28;20235;-76
2022/04/08 09:46:33;;;;;;;8.50;8.13;;;;;;;16.53;36.53;92075.53;5010655;28;20196;-76
2022/04/08 09:48:59;;;;;;;7.83;7.53;;;;;;;16.41;35.65;92077.34;5009826;28;20242;-75
2022/04/08 09:51:27;;;;;;;9.00;8.60;;;;;;;16.68;37.55;92072.28;5010473;28;20199;-75
2022/04/08 09:54:04;;;;;;;7.77;7.37;;;;;;;16.66;36.42;92076.31;5010322;28;20231;-75
2022/04/08 09:56:30;;;;;;;8.17;7.87;;;;;;;16.87;38.61;92085.66;5009652;28;20195;-75
2022/04/08 09:59:01;;;;;;;7.83;7.53;;;;;;;17.12;37.47;92100.41;5009714;28;20233;-74
2022/04/08 10:01:28;;;;;;;8.23;7.83;;;;;;;16.72;35.51;92088.97;5008756;28;20192;-76
2022/04/08 10:03:53;;;;;;;8.33;8.03;;;;;;;16.95;36.92;92108.53;5009419;28;20250;-76
2022/04/08 10:06:19;;;;;;;8.40;8.03;;;;;;;16.55;44.38;92104.97;5025771;28;20199;-76
2022/04/08 10:08:46;;;;;;;8.27;7.87;;;;;;;16.46;44.98;92080.56;5010298;28;20215;-76
2022/04/08 10:11:23;;;;;;;7.97;7.67;;;;;;;16.60;44.93;92075.78;5009861;28;20183;-76
2022/04/08 10:13:58;;;;;;;8.13;7.73;;;;;;;16.78;44.51;92086.88;5009974;28;20219;-77
2022/04/08 10:16:24;;;;;;;9.30;8.80;;;;;;;16.92;44.15;92092.59;5010530;28;20180;-76
2022/04/08 10:18:52;;;;;;;8.40;8.00;;;;;;;16.66;43.78;92092.91;5009983;28;20219;-75
2022/04/08 10:21:18;;;;;;;7.97;7.57;;;;;;;16.63;44.74;92079.59;5009983;28;20243;-76
2022/04/08 10:23:53;;;;;;;8.73;8.23;;;;;;;16.85;44.68;92087.88;5009819;28;20235;-74
2022/04/08 10:26:24;;;;;;;7.40;7.10;;;;;;;16.89;43.54;92090.59;5009734;28;20168;-76
2022/04/08 10:28:54;;;;;;;8.93;8.53;;;;;;;16.65;43.70;92086.09;5008497;28;20254;-76
2022/04/08 10:31:25;;;;;;;9.13;8.60;;;;;;;16.78;43.84;92095.56;5023817;28;20172;-76
2022/04/08 10:33:55;;;;;;;8.40;8.00;;;;;;;16.66;44.54;92097.41;5007335;28;20219;-78
2022/04/08 10:36:32;;;;;;;8.33;8.03;;;;;;;16.83;44.93;92090.06;5009327;28;21705;-78
2022/04/08 10:39:12;;;;;;;8.57;8.17;;;;;;;16.90;45.49;92066.53;5008893;28;20258;-79
2022/04/08 10:42:06;;;;;;;8.67;8.10;;;;;;;16.98;43.28;92070.94;5008993;28;20241;-78
2022/04/08 10:44:37;;;;;;;8.53;8.13;;;;;;;17.04;43.78;92069.63;5007344;28;20235;-78
2022/04/08 10:47:14;;;;;;;9.07;8.67;;;;;;;17.07;41.67;92079.53;5008556;28;20266;-78
2022/04/08 10:50:01;;;;;;;8.57;8.13;;;;;;;17.14;37.72;92069.19;5009921;28;20313;-78
2022/04/08 10:52:28;;;;;;;8.17;7.63;;;;;;;17.03;35.77;92077.88;5009023;28;20191;-80
2022/04/08 10:55:07;;;;;;;8.40;8.00;;;;;;;17.35;35.80;92061.91;5007911;28;20233;-79
2022/04/08 10:57:34;;;;;;;7.80;7.50;;;;;;;17.36;36.17;92068.72;5008027;28;20202;-80
2022/04/08 11:00:07;;;;;;;8.50;8.10;;;;;;;17.54;36.72;92066.66;5008852;28;20246;-77
2022/04/08 11:02:35;;;;;;;8.20;7.80;;;;;;;17.77;36.54;92065.03;5009597;28;20222;-77
2022/04/08 11:05:05;;;;;;;8.70;8.20;;;;;;;17.66;34.60;92065.81;5003984;28;20326;-77
2022/04/08 11:07:31;;;;;;;8.83;8.43;;;;;;;17.74;34.60;92071.00;5003222;28;20200;-76
2022/04/08 11:09:57;;;;;;;8.27;7.87;;;;;;;17.81;35.64;92068.53;5007040;28;20287;-75
2022/04/08 11:12:23;;;;;;;8.60;8.30;;;;;;;17.91;35.35;92073.34;5009070;28;20188;-77
2022/04/08 11:14:58;;;;;;;8.27;7.97;;;;;;;17.51;36.83;92051.44;5008411;28;20318;-76
2022/04/08 11:17:35;;;;;;;8.97;8.57;;;;;;;17.68;35.52;92066.28;5008378;28;20182;-76
2022/04/08 11:20:04;;;;;;;8.17;7.77;;;;;;;17.89;36.92;92066.84;5008099;28;20230;-75
2022/04/08 11:22:40;;;;;;;8.33;8.03;;;;;;;17.61;35.60;92064.19;5007952;28;20223;-75
2022/04/08 11:25:08;;;;;;;9.23;8.73;;;;;;;18.02;36.43;92068.34;5008128;28;20850;-75
2022/04/08 11:27:33;;;;;;;9.37;8.50;;;;;;;18.30;36.23;92061.97;5007997;28;20180;-76
2022/04/08 11:29:59;;;;;;;8.17;7.87;;;;;;;17.98;34.63;92060.31;5008545;28;20223;-76
2022/04/08 11:32:32;;;;;;;7.80;7.50;;;;;;;18.16;35.69;92072.16;5008214;28;20198;-75